Time;durP1;ratioP1;P1;durP2;ratioP2;P2;SDS_P1;SDS_P2;PMS_P1;PMS_P2;Temp;Humidity;BMP_temperature;BMP_pressure;BME280_temperature;BME280_humidity;BME280_pressure;Samples;Min_cycle;Max_cycle;Signal;HPM_P1;HPM_P2
2022/05/27 00:01:47;;;;;;;7.57;5.10;;;13.30;99.90;;;;;;10515240;28;20543;-86
2022/05/27 00:06:48;;;;;;;10.13;5.68;;;13.30;99.90;;;;;;10522150;28;20032;-87
2022/05/27 00:11:49;;;;;;;8.90;4.68;;;13.20;99.90;;;;;;10526727;28;20519;-86
2022/05/27 00:16:50;;;;;;;9.82;6.38;;;13.20;99.90;;;;;;10491249;28;20107;-88
2022/05/27 00:21:50;;;;;;;9.15;5.45;;;13.40;99.90;;;;;;10511889;28;20040;-86
2022/05/27 00:26:51;;;;;;;9.98;5.72;;;13.60;99.90;;;;;;10518088;28;20543;-83
2022/05/27 00:31:51;;;;;;;8.05;5.43;;;13.70;99.90;;;;;;10516060;28;20040;-86
2022/05/27 00:36:52;;;;;;;6.63;5.05;;;13.90;99.90;;;;;;10498640;28;20071;-85
2022/05/27 00:41:53;;;;;;;8.20;4.55;;;13.90;99.90;;;;;;10506075;28;20050;-85
2022/05/27 00:46:56;;;;;;;5.68;3.75;;;14.10;99.90;;;;;;10530117;28;20746;-85
2022/05/27 00:52:09;;;;;;;4.32;3.10;;;14.10;99.90;;;;;;10520429;28;20039;-84
2022/05/27 00:57:21;;;;;;;5.15;3.00;;;14.20;99.90;;;;;;10486454;28;20035;-84
2022/05/27 01:02:21;;;;;;;3.55;2.97;;;14.30;99.90;;;;;;10493856;28;20060;-85
2022/05/27 01:07:22;;;;;;;4.05;3.17;;;14.30;99.90;;;;;;10530639;28;20028;-85
2022/05/27 01:13:01;;;;;;;6.30;3.60;;;14.30;99.90;;;;;;10512611;28;20036;-86
2022/05/27 01:20:18;;;;;;;7.25;3.70;;;14.40;99.90;;;;;;10522963;28;20047;-85
2022/05/27 01:24:04;;;;;;;6.50;3.50;;;14.40;99.90;;;;;;10526162;28;20036;-86
2022/05/27 01:29:24;;;;;;;6.03;3.53;;;14.40;99.90;;;;;;10517007;28;20016;-87
2022/05/27 01:34:50;;;;;;;5.93;2.85;;;14.40;99.90;;;;;;10489421;28;20024;-88
2022/05/27 01:40:08;;;;;;;5.70;3.05;;;14.40;99.90;;;;;;10530754;22;20048;-83
2022/05/27 01:45:21;;;;;;;6.72;3.15;;;14.40;99.90;;;;;;10514185;28;20024;-84
2022/05/27 01:50:37;;;;;;;5.53;3.17;;;14.40;99.90;;;;;;10491179;28;20028;-85
2022/05/27 01:55:45;;;;;;;6.38;3.38;;;14.40;99.90;;;;;;10473818;28;20036;-84
2022/05/27 02:00:48;;;;;;;8.27;4.07;;;14.40;99.90;;;;;;10473828;28;20024;-86
2022/05/27 02:06:05;;;;;;;6.95;4.80;;;14.30;99.90;;;;;;10492625;28;20111;-85
2022/05/27 02:11:11;;;;;;;8.82;6.97;;;14.40;99.90;;;;;;10490413;28;20021;-85
2022/05/27 02:16:18;;;;;;;12.57;10.65;;;14.40;99.90;;;;;;10492579;28;20048;-84
2022/05/27 02:21:29;;;;;;;12.82;9.02;;;14.40;99.90;;;;;;10490415;28;20032;-86
2022/05/27 02:26:38;;;;;;;6.25;4.85;;;14.40;99.90;;;;;;10491038;28;20067;-86
2022/05/27 02:31:45;;;;;;;5.20;3.90;;;14.40;99.90;;;;;;10489663;28;20862;-85
2022/05/27 02:37:05;;;;;;;7.90;4.25;;;14.40;99.90;;;;;;10490084;28;20056;-86
2022/05/27 02:42:23;;;;;;;8.13;4.13;;;14.30;99.90;;;;;;10489327;28;20427;-84
2022/05/27 02:47:33;;;;;;;11.23;5.65;;;14.30;99.90;;;;;;10490619;28;20695;-85
2022/05/27 02:52:47;;;;;;;10.27;7.13;;;14.20;99.90;;;;;;10489540;28;20033;-85
2022/05/27 02:57:52;;;;;;;12.25;7.60;;;14.20;99.90;;;;;;10471244;28;20062;-85
2022/05/27 03:02:54;;;;;;;10.13;6.88;;;14.20;99.90;;;;;;10471244;28;20041;-85
2022/05/27 03:08:22;;;;;;;13.80;7.22;;;14.20;99.90;;;;;;10467961;28;20641;-87
2022/05/27 03:13:22;;;;;;;11.80;9.82;;;14.20;99.90;;;;;;10481073;28;20706;-86
2022/05/27 03:18:32;;;;;;;14.05;11.13;;;14.20;99.90;;;;;;10488670;28;20066;-82
2022/05/27 03:23:42;;;;;;;15.38;10.45;;;14.20;99.90;;;;;;10488419;28;20123;-82
2022/05/27 03:28:46;;;;;;;11.77;8.27;;;14.20;99.90;;;;;;10487200;28;20486;-83
2022/05/27 03:33:55;;;;;;;12.35;8.45;;;14.20;99.90;;;;;;10476868;28;20044;-84
2022/05/27 03:39:16;;;;;;;11.52;8.20;;;14.20;99.90;;;;;;10448584;28;20108;-85
2022/05/27 03:44:22;;;;;;;11.20;7.78;;;14.20;99.90;;;;;;10450609;28;20111;-84
2022/05/27 03:49:23;;;;;;;12.25;7.47;;;14.20;99.90;;;;;;10488968;28;20024;-83
2022/05/27 03:54:24;;;;;;;10.02;6.90;;;14.20;99.90;;;;;;10487704;28;20043;-86
2022/05/27 03:59:26;;;;;;;8.55;6.85;;;14.30;99.90;;;;;;10486896;28;20407;-84
2022/05/27 04:04:28;;;;;;;12.27;7.93;;;14.30;99.90;;;;;;10486590;28;20047;-84
2022/05/27 04:09:29;;;;;;;13.98;6.95;;;14.30;99.90;;;;;;10487046;28;20024;-86
2022/05/27 04:14:31;;;;;;;9.77;6.63;;;14.40;99.90;;;;;;10486268;28;20017;-86
2022/05/27 04:19:32;;;;;;;8.75;5.50;;;14.40;99.90;;;;;;10468910;28;20151;-84
2022/05/27 04:24:33;;;;;;;11.75;4.72;;;14.40;99.90;;;;;;10487291;28;20020;-84
2022/05/27 04:29:38;;;;;;;6.93;4.88;;;14.40;99.90;;;;;;10487470;28;20027;-82
2022/05/27 04:34:40;;;;;;;10.13;5.93;;;14.50;99.90;;;;;;10485744;28;20086;-85
2022/05/27 04:39:41;;;;;;;8.20;5.18;;;14.60;99.90;;;;;;10467747;28;20045;-84
2022/05/27 04:44:42;;;;;;;9.85;6.45;;;14.70;99.90;;;;;;10487877;28;20095;-84
2022/05/27 04:49:53;;;;;;;9.73;6.32;;;14.80;99.90;;;;;;10487922;28;20025;-84
2022/05/27 04:54:55;;;;;;;9.88;7.22;;;14.80;99.90;;;;;;10487266;28;20069;-85
2022/05/27 04:59:56;;;;;;;11.00;6.20;;;14.80;99.90;;;;;;10487449;28;20020;-84
2022/05/27 05:04:56;;;;;;;12.82;7.28;;;14.80;99.90;;;;;;10487872;28;20024;-83
2022/05/27 05:09:58;;;;;;;10.02;6.78;;;14.90;99.90;;;;;;10491024;28;20058;-83
2022/05/27 05:14:58;;;;;;;10.50;6.53;;;14.90;99.90;;;;;;10476701;28;20448;-83
2022/05/27 05:19:59;;;;;;;9.20;6.13;;;14.90;99.90;;;;;;10475991;28;20131;-86
2022/05/27 05:24:59;;;;;;;14.32;6.90;;;15.00;99.90;;;;;;10494334;28;20031;-84
2022/05/27 05:30:01;;;;;;;10.50;6.68;;;15.00;99.90;;;;;;10494517;28;20035;-84
2022/05/27 05:35:02;;;;;;;10.18;6.25;;;15.10;99.90;;;;;;10493816;28;20056;-85
2022/05/27 05:40:03;;;;;;;11.45;7.22;;;15.20;99.90;;;;;;10493617;28;20057;-85
2022/05/27 05:45:05;;;;;;;11.02;6.18;;;15.30;99.90;;;;;;10475004;28;20066;-84
2022/05/27 05:50:06;;;;;;;9.70;6.38;;;15.30;99.90;;;;;;10475310;28;20021;-85
2022/05/27 05:55:10;;;;;;;10.57;6.40;;;15.40;99.90;;;;;;10493289;28;20464;-85
2022/05/27 06:00:13;;;;;;;10.75;6.40;;;15.40;99.90;;;;;;10493136;28;20067;-83
2022/05/27 06:05:15;;;;;;;7.40;5.60;;;15.40;99.90;;;;;;10493106;28;20024;-84
2022/05/27 06:10:16;;;;;;;10.70;5.85;;;15.60;99.90;;;;;;10492722;28;20020;-84
2022/05/27 06:15:17;;;;;;;11.23;6.80;;;15.70;99.90;;;;;;10492621;28;20020;-83
2022/05/27 06:20:18;;;;;;;9.65;6.25;;;15.70;99.90;;;;;;10491691;28;20081;-86
2022/05/27 06:25:19;;;;;;;12.00;7.18;;;15.80;99.90;;;;;;10480757;28;20020;-82
2022/05/27 06:35:41;;;;;;;11.57;6.45;;;16.10;99.90;;;;;;10492004;28;20044;-85
2022/05/27 06:40:42;;;;;;;12.25;7.05;;;16.30;99.90;;;;;;10491360;28;20054;-84
2022/05/27 06:45:42;;;;;;;15.13;7.25;;;16.40;99.90;;;;;;10490613;28;20030;-83
2022/05/27 06:50:43;;;;;;;12.85;6.10;;;16.60;99.40;;;;;;10490375;28;20086;-86
2022/05/27 06:55:51;;;;;;;10.13;5.70;;;16.80;98.90;;;;;;10490391;28;20715;-83
2022/05/27 07:00:51;;;;;;;8.27;5.45;;;17.00;98.20;;;;;;10490946;28;20029;-84
2022/05/27 07:05:52;;;;;;;10.20;5.47;;;17.00;97.60;;;;;;10489840;28;20028;-82
2022/05/27 07:10:53;;;;;;;6.78;4.07;;;17.10;96.90;;;;;;10489617;28;20033;-83
2022/05/27 07:15:53;;;;;;;7.93;4.65;;;17.10;97.20;;;;;;10489506;28;20036;-83
2022/05/27 07:21:03;;;;;;;9.02;4.35;;;17.30;96.60;;;;;;10489102;28;20388;-83
2022/05/27 07:26:03;;;;;;;10.07;4.30;;;17.70;96.60;;;;;;10471586;28;20078;-83
2022/05/27 07:31:05;;;;;;;6.43;4.47;;;18.00;95.90;;;;;;10488448;28;20434;-83
2022/05/27 07:36:06;;;;;;;9.13;5.30;;;18.20;94.20;;;;;;10488928;28;20059;-84
2022/05/27 07:41:06;;;;;;;9.52;4.10;;;18.30;94.40;;;;;;10470529;28;20171;-84
2022/05/27 07:46:07;;;;;;;12.30;3.95;;;18.40;93.60;;;;;;10488491;28;20149;-84
2022/05/27 07:51:11;;;;;;;11.52;3.88;;;18.50;93.40;;;;;;10470511;28;20058;-83
2022/05/27 08:02:13;;;;;;;4.43;2.83;;;18.60;93.50;;;;;;10648815;23;20502;-82
2022/05/27 08:07:14;;;;;;;7.00;3.63;;;18.60;92.40;;;;;;10572227;28;20046;-82
2022/05/27 08:12:15;;;;;;;6.85;4.63;;;18.60;92.60;;;;;;10572290;28;20028;-83
2022/05/27 08:17:16;;;;;;;7.05;3.28;;;18.80;92.30;;;;;;10571980;28;20389;-83
2022/05/27 08:22:17;;;;;;;6.68;3.03;;;19.00;93.10;;;;;;10572161;28;20058;-83
2022/05/27 08:27:18;;;;;;;5.93;2.60;;;19.40;92.50;;;;;;10572035;28;20028;-81
2022/05/27 08:32:19;;;;;;;4.72;2.70;;;19.90;92.40;;;;;;10572053;28;20032;-83
2022/05/27 08:42:49;;;;;;;6.38;2.13;;;20.30;91.50;;;;;;10572546;28;20043;-85
2022/05/27 08:47:55;;;;;;;2.42;1.50;;;20.80;90.90;;;;;;10579564;28;20518;-82
2022/05/27 08:53:03;;;;;;;3.75;1.60;;;20.90;89.10;;;;;;10579737;28;20020;-84
2022/05/27 09:03:44;;;;;;;3.58;1.50;;;21.00;84.20;;;;;;10578955;28;20051;-82
2022/05/27 09:08:45;;;;;;;3.97;1.63;;;21.10;84.60;;;;;;10578872;28;20060;-82
2022/05/27 09:14:27;;;;;;;2.63;1.85;;;21.30;83.30;;;;;;10578517;28;20526;-87
2022/05/27 09:19:37;;;;;;;4.05;1.88;;;21.20;85.60;;;;;;10577555;28;20504;-82
2022/05/27 09:25:02;;;;;;;4.38;2.20;;;21.10;85.00;;;;;;10578278;28;20084;-83
2022/05/27 09:30:15;;;;;;;4.07;2.10;;;21.10;84.40;;;;;;10577949;28;20036;-83
2022/05/27 09:35:39;;;;;;;2.45;1.67;;;20.90;86.50;;;;;;10578424;28;20026;-83
2022/05/27 09:41:03;;;;;;;5.47;1.50;;;20.70;86.60;;;;;;10577341;28;20036;-83
2022/05/27 09:46:09;;;;;;;2.65;1.30;;;20.50;85.20;;;;;;10555831;28;20039;-79
2022/05/27 09:51:12;;;;;;;4.78;1.80;;;20.40;84.50;;;;;;10576924;28;20084;-83
2022/05/27 09:56:14;;;;;;;1.95;1.50;;;20.10;85.90;;;;;;10576375;28;20455;-83
2022/05/27 10:01:27;;;;;;;2.53;1.70;;;19.80;87.40;;;;;;10576876;28;20044;-82
2022/05/27 10:06:30;;;;;;;3.85;1.90;;;19.40;88.80;;;;;;10577115;28;20088;-84
2022/05/27 10:11:33;;;;;;;3.85;1.80;;;19.20;90.00;;;;;;10576828;28;20023;-80
2022/05/27 10:16:35;;;;;;;1.92;1.70;;;19.00;90.80;;;;;;10576563;28;20036;-83
2022/05/27 10:22:02;;;;;;;6.47;2.00;;;18.90;90.80;;;;;;10575950;28;20514;-85
2022/05/27 10:27:07;;;;;;;2.58;1.80;;;18.80;90.50;;;;;;10575735;28;20031;-85
2022/05/27 10:32:08;;;;;;;5.10;2.40;;;18.80;90.90;;;;;;10575405;28;20028;-85
2022/05/27 10:37:22;;;;;;;4.07;2.05;;;18.70;91.90;;;;;;10575423;28;20023;-78
2022/05/27 10:42:40;;;;;;;6.22;2.45;;;18.50;92.90;;;;;;10575641;28;20027;-82
2022/05/27 10:47:51;;;;;;;5.25;2.30;;;18.40;94.10;;;;;;10574952;28;20103;-84
2022/05/27 10:53:10;;;;;;;7.22;3.90;;;18.20;94.70;;;;;;10574496;28;20015;-85
2022/05/27 11:04:40;;;;;;;5.60;3.80;;;17.90;99.90;;;;;;10573652;28;20673;-85
2022/05/27 11:09:55;;;;;;;8.73;5.18;;;18.30;99.90;;;;;;10572948;28;20526;-87
2022/05/27 11:15:12;;;;;;;5.10;3.35;;;18.80;99.90;;;;;;10574240;28;20500;-84
2022/05/27 11:20:24;;;;;;;9.75;3.85;;;18.90;99.90;;;;;;10572203;28;20024;-85
2022/05/27 11:25:50;;;;;;;5.90;4.55;;;18.80;99.90;;;;;;10573513;27;20020;-84
2022/05/27 11:31:24;;;;;;;6.60;4.90;;;18.60;99.90;;;;;;10572259;28;20020;-85
2022/05/27 11:37:16;;;;;;;3.72;2.75;;;18.30;99.90;;;;;;10552517;28;20039;-83
2022/05/27 11:42:31;;;;;;;1.98;1.50;;;17.50;99.90;;;;;;10548765;28;20526;-80
2022/05/27 11:47:52;;;;;;;1.75;1.33;;;16.20;99.90;;;;;;10572887;28;20106;-81
2022/05/27 11:52:52;;;;;;;2.45;1.73;;;14.70;99.90;;;;;;10572542;28;20027;-79
2022/05/27 11:58:18;;;;;;;5.05;2.90;;;13.50;99.90;;;;;;10572773;28;20027;-81
2022/05/27 12:03:40;;;;;;;4.47;3.40;;;12.80;99.90;;;;;;10572162;28;20048;-81
2022/05/27 12:09:07;;;;;;;6.03;3.00;;;12.50;99.90;;;;;;10570893;28;20073;-82
2022/05/27 12:14:14;;;;;;;6.38;3.75;;;12.10;99.90;;;;;;10572523;28;20023;-83
2022/05/27 12:19:20;;;;;;;5.53;3.90;;;11.90;99.90;;;;;;10576053;28;20027;-82
2022/05/27 12:24:33;;;;;;;6.70;3.95;;;11.80;99.90;;;;;;10581170;28;20039;-82
2022/05/27 12:29:34;;;;;;;5.35;2.90;;;11.60;99.90;;;;;;10580385;28;20081;-83
2022/05/27 12:34:39;;;;;;;5.35;2.67;;;11.40;99.90;;;;;;10580269;28;20024;-80
2022/05/27 12:39:44;;;;;;;4.38;2.60;;;11.30;99.90;;;;;;10579751;28;20518;-80
2022/05/27 12:44:47;;;;;;;4.93;2.57;;;11.10;99.90;;;;;;10579761;28;20031;-82
2022/05/27 12:49:58;;;;;;;4.40;2.60;;;11.00;99.90;;;;;;10579235;28;20030;-82
2022/05/27 12:55:00;;;;;;;4.95;3.00;;;10.90;99.90;;;;;;10577987;28;20032;-81
2022/05/27 13:06:17;;;;;;;6.05;3.25;;;11.10;99.90;;;;;;10537358;28;20480;-81
2022/05/27 13:11:24;;;;;;;3.90;3.17;;;11.20;99.90;;;;;;10553226;28;20085;-83
2022/05/27 13:16:45;;;;;;;4.00;2.75;;;11.40;99.90;;;;;;10578704;28;20084;-83
2022/05/27 13:21:54;;;;;;;7.15;3.70;;;11.40;99.90;;;;;;10578729;28;20039;-82
2022/05/27 13:26:54;;;;;;;8.20;3.88;;;11.40;99.90;;;;;;10577785;28;20066;-81
2022/05/27 13:31:57;;;;;;;9.18;5.82;;;11.50;99.90;;;;;;10576443;28;20111;-82
2022/05/27 13:37:01;;;;;;;37.53;21.85;;;11.50;99.90;;;;;;10578004;27;20424;-82
2022/05/27 13:42:03;;;;;;;15.95;7.30;;;11.70;99.90;;;;;;10543330;27;20471;-83
2022/05/27 13:47:04;;;;;;;17.77;10.30;;;11.70;99.90;;;;;;10538364;28;20115;-83
2022/05/27 13:52:21;;;;;;;45.05;25.17;;;11.80;99.90;;;;;;10562165;27;20028;-83
2022/05/27 13:57:28;;;;;;;50.33;27.35;;;11.90;99.90;;;;;;10576346;28;20051;-83
2022/05/27 14:02:47;;;;;;;13.88;9.50;;;12.00;99.90;;;;;;10574478;28;20549;-85
2022/05/27 14:07:52;;;;;;;19.33;12.38;;;12.00;99.90;;;;;;10575515;28;20031;-81
2022/05/27 14:12:58;;;;;;;20.33;13.43;;;12.00;99.90;;;;;;10576591;28;20030;-83
2022/05/27 14:18:00;;;;;;;18.88;11.55;;;12.10;99.90;;;;;;10575966;28;20097;-83
2022/05/27 14:23:13;;;;;;;15.13;10.07;;;12.00;99.90;;;;;;10575558;28;20152;-81
2022/05/27 14:28:36;;;;;;;21.58;13.18;;;12.00;99.90;;;;;;10574913;28;20027;-80
2022/05/27 14:33:44;;;;;;;14.43;8.77;;;12.00;99.90;;;;;;10575037;27;20031;-81
2022/05/27 14:38:47;;;;;;;14.27;9.02;;;11.80;99.90;;;;;;10575088;28;20496;-80
2022/05/27 14:43:54;;;;;;;11.43;7.18;;;11.80;99.90;;;;;;10598814;27;20318;-79
2022/05/27 14:49:24;;;;;;;13.82;8.75;;;11.60;99.90;;;;;;10615958;27;20022;-80
2022/05/27 14:54:34;;;;;;;13.98;8.20;;;11.50;99.90;;;;;;10531820;28;20016;-80
2022/05/27 14:59:36;;;;;;;19.05;11.00;;;11.50;99.90;;;;;;10531918;28;20032;-81
2022/05/27 15:04:37;;;;;;;15.32;9.10;;;11.50;99.90;;;;;;10552669;28;20055;-80
2022/05/27 15:09:37;;;;;;;20.45;12.77;;;11.50;99.90;;;;;;10571983;28;20031;-80
2022/05/27 15:14:44;;;;;;;18.10;11.27;;;11.60;99.90;;;;;;10571412;28;20031;-80
2022/05/27 15:19:49;;;;;;;29.13;14.43;;;11.70;99.90;;;;;;10550407;27;20087;-80
2022/05/27 15:25:05;;;;;;;59.47;32.77;;;11.70;99.90;;;;;;10571394;28;20034;-78
2022/05/27 15:35:43;;;;;;;76.75;41.53;;;11.70;99.90;;;;;;10561901;28;20035;-82
2022/05/27 15:40:45;;;;;;;25.17;12.25;;;11.60;99.90;;;;;;10569658;28;20059;-81
2022/05/27 15:45:47;;;;;;;33.70;20.85;;;11.60;99.90;;;;;;10568351;28;20020;-82
2022/05/27 15:50:49;;;;;;;25.83;17.05;;;11.50;99.90;;;;;;10563448;28;20069;-81
2022/05/27 15:55:50;;;;;;;34.67;17.15;;;11.50;99.90;;;;;;10571269;28;20460;-82
2022/05/27 16:00:51;;;;;;;37.55;18.42;;;11.50;99.90;;;;;;10571611;28;20044;-83
2022/05/27 16:05:54;;;;;;;40.38;21.52;;;11.50;99.90;;;;;;10570250;28;20024;-82
2022/05/27 16:10:55;;;;;;;35.15;19.30;;;11.50;99.90;;;;;;10571636;28;20111;-82
2022/05/27 16:21:17;;;;;;;32.17;19.25;;;11.40;99.90;;;;;;10570887;28;20478;-82
2022/05/27 16:26:18;;;;;;;38.20;21.77;;;11.40;99.90;;;;;;10571012;28;20032;-82
2022/05/27 16:31:19;;;;;;;31.10;17.85;;;11.60;99.90;;;;;;10570037;28;20119;-82
2022/05/27 16:36:20;;;;;;;30.40;17.63;;;11.50;99.90;;;;;;10570118;28;20024;-82
2022/05/27 16:41:24;;;;;;;36.97;21.75;;;11.50;99.90;;;;;;10571273;28;20032;-82
2022/05/27 16:46:25;;;;;;;33.47;20.65;;;11.50;99.90;;;;;;10570067;28;20550;-83
2022/05/27 16:51:26;;;;;;;39.03;21.20;;;11.60;99.90;;;;;;10589604;28;20053;-82
2022/05/27 16:56:27;;;;;;;38.90;19.75;;;11.60;99.90;;;;;;10574225;27;20072;-82
2022/05/27 17:01:28;;;;;;;36.75;20.00;;;11.60;99.90;;;;;;10568531;28;20043;-82
2022/05/27 17:06:29;;;;;;;33.50;19.70;;;11.60;99.90;;;;;;10573400;28;20475;-82
2022/05/27 17:11:29;;;;;;;37.88;20.58;;;11.50;99.90;;;;;;10578428;28;20027;-83
2022/05/27 17:16:30;;;;;;;57.58;30.85;;;11.50;99.90;;;;;;10577465;28;20063;-82
2022/05/27 17:21:31;;;;;;;64.30;35.70;;;11.50;99.90;;;;;;10578900;28;20590;-82
2022/05/27 17:26:32;;;;;;;75.22;39.40;;;11.60;99.90;;;;;;10577806;28;20072;-83
2022/05/27 17:31:32;;;;;;;66.50;34.03;;;11.60;99.90;;;;;;10577130;28;20032;-82
2022/05/27 17:36:35;;;;;;;41.00;24.90;;;11.60;99.90;;;;;;10610597;27;20035;-81
2022/05/27 17:41:36;;;;;;;34.97;21.13;;;11.50;99.90;;;;;;10572775;27;20053;-82
2022/05/27 17:52:05;;;;;;;39.28;22.35;;;11.50;99.90;;;;;;10569803;28;20533;-81
2022/05/27 17:57:08;;;;;;;40.60;23.15;;;11.40;99.90;;;;;;10566167;27;20073;-81
2022/05/27 18:02:09;;;;;;;46.95;26.02;;;11.40;99.90;;;;;;10574392;28;20086;-81
2022/05/27 18:07:10;;;;;;;42.53;23.17;;;11.40;99.90;;;;;;10574984;28;20023;-81
2022/05/27 18:12:12;;;;;;;53.55;25.27;;;11.40;99.90;;;;;;10575121;28;20076;-81
2022/05/27 18:17:12;;;;;;;42.97;22.98;;;11.40;99.90;;;;;;10573434;28;20024;-81
2022/05/27 18:22:13;;;;;;;55.17;27.67;;;11.40;99.90;;;;;;10575107;28;20070;-81
2022/05/27 18:27:14;;;;;;;58.47;30.73;;;11.40;99.90;;;;;;10567803;28;20091;-82
2022/05/27 18:32:15;;;;;;;58.50;29.63;;;11.40;99.90;;;;;;10575670;27;20459;-81
2022/05/27 18:37:16;;;;;;;42.20;24.15;;;11.30;99.90;;;;;;10572486;28;20027;-81
2022/05/27 18:42:16;;;;;;;41.08;24.90;;;11.30;99.90;;;;;;10566660;28;20084;-83
2022/05/27 18:47:17;;;;;;;41.42;23.88;;;11.30;99.90;;;;;;10570640;28;20015;-80
2022/05/27 18:52:18;;;;;;;58.25;32.55;;;11.30;99.90;;;;;;10559748;28;20303;-81
2022/05/27 18:57:19;;;;;;;58.35;32.78;;;11.20;99.90;;;;;;10572093;28;20024;-80
2022/05/27 19:02:21;;;;;;;56.42;31.77;;;11.20;99.90;;;;;;10568767;28;20055;-80
2022/05/27 19:07:22;;;;;;;68.45;38.90;;;11.10;99.90;;;;;;10555671;28;20646;-80
2022/05/27 19:12:22;;;;;;;76.75;44.60;;;11.10;99.90;;;;;;10572320;28;20024;-80
2022/05/27 19:17:23;;;;;;;82.70;46.22;;;11.00;99.90;;;;;;10565619;28;20031;-81
2022/05/27 19:22:24;;;;;;;88.40;47.42;;;10.90;99.90;;;;;;10572319;28;20044;-81
2022/05/27 19:27:25;;;;;;;93.57;47.20;;;10.90;99.90;;;;;;10572442;28;20035;-80
2022/05/27 19:32:26;;;;;;;73.22;42.70;;;10.80;99.90;;;;;;10563736;28;20032;-81
2022/05/27 19:37:30;;;;;;;74.78;40.78;;;10.80;99.90;;;;;;10569952;28;20748;-81
2022/05/27 19:42:31;;;;;;;72.93;40.60;;;10.80;99.90;;;;;;10564936;28;20032;-81
2022/05/27 19:47:33;;;;;;;72.32;38.22;;;10.70;99.90;;;;;;10571310;28;20027;-83
2022/05/27 19:52:34;;;;;;;71.50;39.83;;;10.70;99.90;;;;;;10548304;28;20637;-82
2022/05/27 20:08:26;;;;;;;57.05;33.92;;;10.60;99.90;;;;;;10560303;28;20110;-80
2022/05/27 20:13:36;;;;;;;59.15;33.72;;;10.60;99.90;;;;;;10568054;28;20031;-80
2022/05/27 20:18:39;;;;;;;59.35;34.47;;;10.50;99.90;;;;;;10565673;28;20444;-80
2022/05/27 20:23:41;;;;;;;59.33;34.10;;;10.50;99.90;;;;;;10567920;28;20060;-80
2022/05/27 20:28:46;;;;;;;64.70;35.10;;;10.50;99.90;;;;;;10566011;28;20028;-80
2022/05/27 20:33:47;;;;;;;70.03;37.40;;;10.40;99.90;;;;;;10561605;28;20022;-82
2022/05/27 20:38:49;;;;;;;65.75;37.65;;;10.40;99.90;;;;;;10566179;28;20458;-82
2022/05/27 20:43:49;;;;;;;63.08;34.22;;;10.40;99.90;;;;;;10555322;28;20028;-81
2022/05/27 20:48:50;;;;;;;62.03;33.07;;;10.40;99.90;;;;;;10553659;28;20031;-82
2022/05/27 20:53:51;;;;;;;62.13;33.23;;;10.30;99.90;;;;;;10557264;28;20012;-82
2022/05/27 20:58:52;;;;;;;65.93;34.95;;;10.30;99.90;;;;;;10596215;27;20027;-82
2022/05/27 21:03:57;;;;;;;71.43;39.00;;;10.30;99.90;;;;;;10573672;28;20043;-82
2022/05/27 21:08:58;;;;;;;77.68;39.97;;;10.20;99.90;;;;;;10575538;28;20554;-81
2022/05/27 21:14:01;;;;;;;69.87;35.80;;;10.20;99.90;;;;;;10576305;28;20068;-81
2022/05/27 21:19:05;;;;;;;71.17;36.90;;;10.20;99.90;;;;;;10570276;28;20024;-83
2022/05/27 21:24:08;;;;;;;84.45;42.17;;;10.30;99.90;;;;;;10566554;28;20032;-81
2022/05/27 21:29:09;;;;;;;71.05;35.10;;;10.30;99.90;;;;;;10566037;28;20034;-81
2022/05/27 21:34:10;;;;;;;62.35;30.15;;;10.30;99.90;;;;;;10560643;28;20367;-81
2022/05/27 21:39:18;;;;;;;62.92;34.20;;;10.30;99.90;;;;;;10576149;28;20028;-82
2022/05/27 21:44:23;;;;;;;61.50;32.45;;;10.30;99.90;;;;;;10574729;28;20039;-81
2022/05/27 21:49:24;;;;;;;73.97;38.00;;;10.30;99.90;;;;;;10570433;28;20084;-81
2022/05/27 21:54:25;;;;;;;68.70;37.10;;;10.30;99.90;;;;;;10574750;27;20101;-80
2022/05/27 21:59:26;;;;;;;66.15;37.22;;;10.30;99.90;;;;;;10560323;28;20016;-79
2022/05/27 22:04:27;;;;;;;72.88;37.63;;;10.30;99.90;;;;;;10571128;28;20047;-80
2022/05/27 22:14:46;;;;;;;18.30;11.30;;;10.50;99.90;;;;;;10567087;28;20039;-81
2022/05/27 22:19:47;;;;;;;33.72;20.10;;;10.50;99.90;;;;;;10575124;28;20020;-81
2022/05/27 22:24:47;;;;;;;40.42;23.48;;;10.50;99.90;;;;;;10572529;28;20031;-81
2022/05/27 22:29:48;;;;;;;37.90;20.80;;;10.40;99.90;;;;;;10573903;27;20047;-81
2022/05/27 22:34:49;;;;;;;36.40;18.65;;;10.30;99.90;;;;;;10573706;27;20016;-82
2022/05/27 22:39:50;;;;;;;26.80;14.47;;;10.20;99.90;;;;;;10573972;28;20443;-81
2022/05/27 22:44:51;;;;;;;32.47;16.73;;;10.00;99.90;;;;;;10573313;28;20012;-81
2022/05/27 22:49:52;;;;;;;27.00;14.63;;;9.80;99.90;;;;;;10574806;28;20015;-81
2022/05/27 22:54:53;;;;;;;29.03;15.57;;;9.70;99.90;;;;;;10572827;28;20569;-81
2022/05/27 22:59:53;;;;;;;25.63;12.70;;;9.60;99.90;;;;;;10573159;28;20044;-81
2022/05/27 23:04:55;;;;;;;25.03;12.83;;;9.50;99.90;;;;;;10572208;28;20101;-81
2022/05/27 23:09:56;;;;;;;23.53;12.70;;;9.30;99.90;;;;;;10572723;28;20019;-81
2022/05/27 23:20:16;;;;;;;23.63;13.47;;;9.20;99.90;;;;;;10572997;28;20035;-81
2022/05/27 23:25:16;;;;;;;27.27;14.73;;;9.10;99.90;;;;;;10572201;28;20020;-81
2022/05/27 23:30:17;;;;;;;22.47;12.10;;;9.10;99.90;;;;;;10571012;28;20034;-81
2022/05/27 23:35:18;;;;;;;22.20;13.10;;;9.00;99.90;;;;;;10572237;28;20484;-81
2022/05/27 23:40:18;;;;;;;24.90;12.80;;;8.90;99.90;;;;;;10571265;28;20472;-81
2022/05/27 23:45:19;;;;;;;21.30;11.97;;;8.90;99.90;;;;;;10571402;28;20134;-81
2022/05/27 23:50:20;;;;;;;30.17;13.43;;;8.90;99.90;;;;;;10572040;28;20081;-81
2022/05/27 23:55:21;;;;;;;31.53;15.13;;;8.80;99.90;;;;;;10571292;28;20031;-81
